Terminal Aerodrome Forecast
Issued by NWS

Home | Current Version | Previous Version | Text Only | Print | Product List | Glossary On
Versions: 1 2 3 4 5 6 7 8 9 10 11 12 13 14 15 16 17 18
817
FTUS41 KPBZ 241727
TAFDUJ
TAF
KDUJ 241727Z 2418/2518 24014G24KT P6SM BKN080
     FM250000 24009KT P6SM BKN035 WS020/26040KT
     FM250400 24009KT P6SM OVC025 WS020/25040KT
     FM250700 24008KT P6SM OVC015
     FM251300 24007KT P6SM OVC010=

USA.gov is the U.S. government's official web portal to all federal, state and local government web resources and services.